Time;durP1;ratioP1;P1;durP2;ratioP2;P2;SDS_P1;SDS_P2;PMS_P1;PMS_P2;Temp;Humidity;BMP_temperature;BMP_pressure;BME280_temperature;BME280_humidity;BME280_pressure;Samples;Min_cycle;Max_cycle;Signal;HPM_P1;HPM_P2
2022/01/21 00:00:47;;;;;;;2.45;2.35;;;;;;;-0.42;100.00;102786.78;4417434;32;20078;-73
2022/01/21 00:03:12;;;;;;;2.70;2.60;;;;;;;-0.38;100.00;102793.78;4418633;32;20130;-74
2022/01/21 00:05:37;;;;;;;2.50;2.40;;;;;;;-0.40;100.00;102785.13;4416579;32;20091;-74
2022/01/21 00:08:03;;;;;;;2.15;2.05;;;;;;;-0.73;100.00;102746.38;4429860;32;20101;-74
2022/01/21 00:10:29;;;;;;;2.60;2.50;;;;;;;-0.74;100.00;102731.75;4425901;32;20480;-73
2022/01/21 00:12:55;;;;;;;2.03;1.92;;;;;;;-0.85;100.00;102716.00;4427937;32;20804;-74
2022/01/21 00:15:21;;;;;;;3.75;3.62;;;;;;;-0.64;100.00;102751.81;4418853;32;20068;-74
2022/01/21 00:17:46;;;;;;;2.40;2.30;;;;;;;-0.41;100.00;102804.88;4417422;32;20079;-75
2022/01/21 00:31:08;;;;;;;2.50;2.40;;;;;;;-0.89;100.00;102771.72;4428166;32;20121;-74
2022/01/21 00:33:33;;;;;;;2.20;2.10;;;;;;;-0.88;100.00;102760.59;4430575;32;20656;-74
2022/01/21 00:35:59;;;;;;;2.17;2.08;;;;;;;-0.71;100.00;102786.84;4415870;32;20077;-75
2022/01/21 00:38:27;;;;;;;3.90;3.75;;;;;;;-0.99;100.00;102725.03;4412671;32;20075;-73
2022/01/21 00:40:55;;;;;;;2.30;2.20;;;;;;;-0.83;100.00;102750.41;4431476;32;20067;-72
2022/01/21 00:43:30;;;;;;;3.58;3.47;;;;;;;-0.57;100.00;102812.16;4422607;32;20088;-73
2022/01/21 00:45:56;;;;;;;2.10;2.00;;;;;;;-0.56;100.00;102813.88;4431550;32;20114;-73
2022/01/21 00:48:21;;;;;;;3.40;3.30;;;;;;;-1.70;100.00;102604.56;4408118;32;20061;-73
2022/01/21 00:50:47;;;;;;;2.83;2.72;;;;;;;-0.67;100.00;102799.00;4436685;32;20193;-72
2022/01/21 00:53:13;;;;;;;3.22;3.12;;;;;;;-1.59;100.00;102653.78;4428432;32;20083;-74
2022/01/21 00:55:38;;;;;;;2.45;2.35;;;;;;;-1.20;100.00;102721.03;4413526;32;20551;-73
2022/01/21 00:58:04;;;;;;;2.40;2.30;;;;;;;-1.11;100.00;102731.59;4414104;32;20090;-73
2022/01/21 01:00:29;;;;;;;2.83;2.72;;;;;;;-0.64;100.00;102824.00;4421586;32;20332;-73
2022/01/21 01:02:54;;;;;;;2.20;2.10;;;;;;;-0.96;100.00;102762.09;4413434;32;20060;-74
2022/01/21 01:05:20;;;;;;;3.60;3.50;;;;;;;-0.68;100.00;102807.56;4415948;32;20174;-74
2022/01/21 01:07:45;;;;;;;2.30;2.20;;;;;;;-0.66;100.00;102820.47;4423619;32;20084;-73
2022/01/21 01:10:17;;;;;;;2.55;2.45;;;;;;;-0.68;100.00;102822.16;4424926;32;20082;-74
2022/01/21 01:19:54;;;;;;;2.40;2.30;;;;;;;-0.53;100.00;102825.16;4421074;32;20092;-73
2022/01/21 01:21:14;;;;;;;3.25;3.15;;;;;;;-0.81;100.00;102774.53;4431755;32;20079;-75
2022/01/21 01:24:01;;;;;;;2.40;2.30;;;;;;;-0.54;100.00;102805.38;4424789;32;20060;-72
2022/01/21 01:29:09;;;;;;;2.20;2.10;;;;;;;-1.06;100.00;102736.88;4430316;32;20090;-74
2022/01/21 01:31:34;;;;;;;2.35;2.25;;;;;;;-0.71;100.00;102796.28;4425909;32;20068;-74
2022/01/21 01:34:01;;;;;;;2.10;2.00;;;;;;;-0.83;100.00;102795.09;4426533;32;20068;-73
2022/01/21 01:36:27;;;;;;;3.90;3.75;;;;;;;-0.69;100.00;102815.25;4425817;32;20154;-73
2022/01/21 01:41:26;;;;;;;3.85;3.72;;;;;;;-1.77;100.00;102646.38;4437182;32;20594;-73
2022/01/21 01:49:29;;;;;;;4.07;3.87;;;;;;;-1.07;100.00;102797.84;4433038;32;20178;-73
2022/01/21 01:51:56;;;;;;;2.40;2.30;;;;;;;-1.18;100.00;102773.47;4417443;32;20072;-75
2022/01/21 01:54:22;;;;;;;4.35;4.15;;;;;;;-0.89;100.00;102815.53;4424823;32;20065;-74
2022/01/21 01:56:52;;;;;;;2.47;2.37;;;;;;;-0.84;100.00;102810.56;4419712;32;20141;-73
2022/01/21 01:59:18;;;;;;;3.65;3.55;;;;;;;-0.83;100.00;102815.72;4424932;32;20088;-74
2022/01/21 02:01:50;;;;;;;2.40;2.30;;;;;;;-0.86;100.00;102820.81;4415631;32;20072;-74
2022/01/21 02:04:15;;;;;;;3.78;3.65;;;;;;;-0.95;100.00;102801.62;4430731;32;20068;-75
2022/01/21 02:06:41;;;;;;;2.83;2.72;;;;;;;-0.85;100.00;102816.50;4411473;32;20073;-75
2022/01/21 02:09:06;;;;;;;2.25;2.15;;;;;;;-1.01;100.00;102830.66;4420392;32;20084;-74
2022/01/21 02:11:31;;;;;;;2.30;2.20;;;;;;;-0.90;100.00;102812.91;4411754;32;20083;-74
2022/01/21 02:14:00;;;;;;;2.25;2.15;;;;;;;-0.89;100.00;102805.22;4429348;32;20067;-75
2022/01/21 02:21:44;;;;;;;2.20;2.10;;;;;;;-1.42;100.00;102725.53;4440956;32;20071;-74
2022/01/21 02:24:16;;;;;;;2.10;2.00;;;;;;;-1.27;100.00;102757.72;4428641;32;20897;-74
2022/01/21 02:26:41;;;;;;;2.20;2.10;;;;;;;-1.13;100.00;102792.50;4432984;32;20080;-73
2022/01/21 02:29:08;;;;;;;2.25;2.15;;;;;;;-1.96;100.00;102657.81;4413614;32;20992;-74
2022/01/21 02:31:34;;;;;;;2.30;2.20;;;;;;;-1.27;100.00;102775.75;4413202;32;21445;-74
2022/01/21 02:33:59;;;;;;;2.10;2.00;;;;;;;-0.97;100.00;102811.00;4432552;32;20115;-74
2022/01/21 02:36:25;;;;;;;3.78;3.65;;;;;;;-0.95;100.00;102820.53;4423904;32;21401;-73
2022/01/21 02:38:50;;;;;;;2.30;2.20;;;;;;;-1.60;100.00;102704.41;4423916;32;20076;-73
2022/01/21 02:41:15;;;;;;;3.58;3.47;;;;;;;-0.87;100.00;102852.56;4427156;32;20057;-72
2022/01/21 02:43:41;;;;;;;2.10;2.00;;;;;;;-0.83;100.00;102820.88;4422321;32;20075;-74
2022/01/21 02:46:08;;;;;;;2.15;2.05;;;;;;;-0.92;100.00;102804.25;4427136;32;20061;-73
2022/01/21 02:48:37;;;;;;;2.40;2.30;;;;;;;-0.78;100.00;102831.34;4426676;32;20710;-74
2022/01/21 02:51:03;;;;;;;2.30;2.20;;;;;;;-0.72;100.00;102830.63;4430632;32;20114;-74
2022/01/21 02:53:40;;;;;;;2.20;2.10;;;;;;;-1.14;100.00;102757.28;4407990;32;20382;-72
2022/01/21 02:56:07;;;;;;;2.37;2.28;;;;;;;-0.61;100.00;102836.97;4426766;32;20072;-71
2022/01/21 02:58:32;;;;;;;2.20;2.10;;;;;;;-1.03;100.00;102761.03;4412386;32;20090;-73
2022/01/21 03:00:58;;;;;;;2.30;2.20;;;;;;;-0.50;100.00;102842.41;4426787;32;20168;-73
2022/01/21 03:03:23;;;;;;;3.75;3.62;;;;;;;-0.64;100.00;102806.81;4414415;32;20083;-73
2022/01/21 03:05:49;;;;;;;2.20;2.10;;;;;;;-0.51;100.00;102814.91;4426192;32;20071;-75
2022/01/21 03:08:14;;;;;;;3.78;3.67;;;;;;;-0.87;100.00;102749.44;4408622;32;20936;-74
2022/01/21 03:10:39;;;;;;;2.20;2.10;;;;;;;-0.29;100.00;102874.00;4427516;32;20078;-72
2022/01/21 03:13:05;;;;;;;2.30;2.20;;;;;;;-0.22;100.00;102854.38;4433920;32;20475;-72
2022/01/21 03:15:30;;;;;;;3.03;2.92;;;;;;;-0.23;100.00;102844.91;4427189;32;20064;-74
2022/01/21 03:17:56;;;;;;;2.25;2.15;;;;;;;-0.18;100.00;102852.75;4429245;32;20666;-75
2022/01/21 03:20:21;;;;;;;4.15;3.95;;;;;;;-0.20;100.00;102845.00;4410002;32;20084;-73
2022/01/21 03:22:46;;;;;;;2.30;2.20;;;;;;;-0.36;100.00;102830.81;4430379;32;20598;-74
2022/01/21 03:25:12;;;;;;;2.58;2.47;;;;;;;-0.16;100.00;102841.66;4414056;32;20585;-73
2022/01/21 03:27:37;;;;;;;2.50;2.40;;;;;;;-0.30;100.00;102822.34;4432975;32;20061;-74
2022/01/21 03:30:04;;;;;;;2.25;2.15;;;;;;;-0.58;100.00;102780.34;4429352;32;20490;-74
2022/01/21 03:32:29;;;;;;;2.60;2.50;;;;;;;-0.27;100.00;102836.19;4424997;32;20529;-72
2022/01/21 03:34:54;;;;;;;2.72;2.62;;;;;;;-0.39;100.00;102828.12;4429532;32;20328;-73
2022/01/21 03:37:20;;;;;;;3.90;3.75;;;;;;;-0.47;100.00;102827.91;4426133;32;20090;-73
2022/01/21 03:39:45;;;;;;;2.28;2.17;;;;;;;-0.51;100.00;102845.84;4418955;32;20071;-75
2022/01/21 03:42:10;;;;;;;2.42;2.33;;;;;;;-0.57;100.00;102840.53;4426539;32;20476;-74
2022/01/21 03:44:36;;;;;;;2.40;2.30;;;;;;;-0.67;100.00;102835.09;4414517;32;20356;-72
2022/01/21 03:47:01;;;;;;;2.50;2.40;;;;;;;-0.65;100.00;102841.16;4425966;32;20142;-72
2022/01/21 03:49:28;;;;;;;3.65;3.55;;;;;;;-0.81;100.00;102821.78;4408554;32;20530;-73
2022/01/21 03:51:54;;;;;;;2.20;2.10;;;;;;;-1.12;100.00;102772.75;4410870;32;20099;-73
2022/01/21 03:54:19;;;;;;;3.62;3.53;;;;;;;-0.76;100.00;102826.22;4399110;32;20072;-73
2022/01/21 03:56:44;;;;;;;2.30;2.20;;;;;;;-0.83;100.00;102840.63;4413440;32;20064;-72
2022/01/21 03:59:10;;;;;;;2.53;2.42;;;;;;;-1.31;100.00;102749.03;4424049;32;20065;-73
2022/01/21 04:01:35;;;;;;;2.20;2.10;;;;;;;-0.76;100.00;102836.53;4418732;32;20061;-73
2022/01/21 04:04:01;;;;;;;2.28;2.17;;;;;;;-1.68;100.00;102685.28;4448355;32;20075;-74
2022/01/21 04:06:26;;;;;;;3.67;3.58;;;;;;;-0.70;100.00;102855.66;4425672;32;20068;-72
2022/01/21 04:08:51;;;;;;;2.22;2.12;;;;;;;-0.65;100.00;102845.44;4427088;32;20087;-73
2022/01/21 04:11:17;;;;;;;3.50;3.40;;;;;;;-0.71;100.00;102825.53;4430271;32;20067;-72
2022/01/21 04:13:43;;;;;;;2.50;2.40;;;;;;;-0.69;100.00;102833.31;4430668;32;20124;-72
2022/01/21 04:16:08;;;;;;;2.15;2.05;;;;;;;-0.69;100.00;102836.75;4430588;32;20064;-74
2022/01/21 04:18:34;;;;;;;2.40;2.30;;;;;;;-2.94;100.00;102480.75;4417868;32;20091;-71
2022/01/21 04:20:59;;;;;;;2.35;2.25;;;;;;;-0.72;100.00;102805.75;4418665;32;20061;-73
2022/01/21 04:23:25;;;;;;;2.10;2.00;;;;;;;-0.86;100.00;102771.84;4418212;32;20094;-73
2022/01/21 04:25:50;;;;;;;2.40;2.30;;;;;;;-0.36;100.00;102846.28;4419488;32;20064;-74
2022/01/21 04:28:16;;;;;;;2.17;2.08;;;;;;;-0.82;100.00;102759.91;4404224;32;20129;-74
2022/01/21 04:30:41;;;;;;;2.30;2.20;;;;;;;-0.52;100.00;102815.72;4416292;32;20179;-72
2022/01/21 04:33:07;;;;;;;2.50;2.40;;;;;;;-0.28;100.00;102838.72;4415973;32;20095;-72
2022/01/21 04:35:32;;;;;;;2.20;2.10;;;;;;;-0.26;100.00;102837.06;4437132;32;20091;-73
2022/01/21 04:38:02;;;;;;;2.10;2.00;;;;;;;-0.24;100.00;102832.81;4426638;32;20446;-74
2022/01/21 04:40:30;;;;;;;3.42;3.33;;;;;;;-0.61;100.00;102769.94;4423017;32;21171;-74
2022/01/21 04:48:25;;;;;;;4.18;3.97;;;;;;;-0.90;100.00;102699.50;4415316;32;20581;-75
2022/01/21 04:53:19;;;;;;;3.85;3.70;;;;;;;-0.23;100.00;102819.97;4421727;32;20060;-72
2022/01/21 04:55:45;;;;;;;2.37;2.28;;;;;;;-0.57;100.00;102765.72;4429451;32;20606;-73
2022/01/21 04:58:10;;;;;;;3.67;3.58;;;;;;;-1.29;100.00;102638.31;4418691;32;20065;-74
2022/01/21 05:00:36;;;;;;;2.35;2.25;;;;;;;-0.52;100.00;102787.34;4424154;32;20071;-74
2022/01/21 05:03:01;;;;;;;2.20;2.10;;;;;;;-0.35;100.00;102808.47;4422281;32;20080;-73
2022/01/21 05:05:26;;;;;;;3.62;3.53;;;;;;;-0.91;100.00;102723.56;4417445;32;20182;-74
2022/01/21 05:07:53;;;;;;;2.53;2.42;;;;;;;-0.08;100.00;102847.91;4414302;32;20575;-75
2022/01/21 05:10:18;;;;;;;3.95;3.78;;;;;;;-1.32;100.00;102643.37;4402964;32;20125;-75
2022/01/21 05:12:44;;;;;;;2.90;2.80;;;;;;;-0.26;100.00;102825.06;4425527;32;20091;-74
2022/01/21 05:15:18;;;;;;;2.25;2.15;;;;;;;-0.10;100.00;102836.66;4431260;32;20593;-75
2022/01/21 05:17:48;;;;;;;2.40;2.30;;;;;;;-0.50;100.00;102770.22;4429490;32;20669;-74
2022/01/21 05:20:14;;;;;;;3.80;3.65;;;;;;;-0.09;100.00;102848.72;4427053;32;20128;-74
2022/01/21 05:22:39;;;;;;;2.28;2.17;;;;;;;-0.22;100.00;102808.81;4418130;32;20483;-74
2022/01/21 05:25:05;;;;;;;3.15;2.95;;;;;;;-0.05;100.00;102845.38;4431246;32;20098;-75
2022/01/21 05:27:30;;;;;;;2.50;2.40;;;;;;;-0.03;100.00;102840.28;4409612;32;20083;-73
2022/01/21 05:29:56;;;;;;;2.30;2.20;;;;;;;-0.52;100.00;102770.19;4409205;32;20330;-73
2022/01/21 05:32:21;;;;;;;4.28;4.07;;;;;;;-0.23;100.00;102825.12;4423222;32;20080;-80
2022/01/21 05:34:46;;;;;;;2.50;2.40;;;;;;;-0.21;100.00;102846.69;4442403;32;20100;-74
2022/01/21 05:37:12;;;;;;;3.03;2.92;;;;;;;-0.81;100.00;102764.22;4413814;32;20067;-74
2022/01/21 05:39:37;;;;;;;2.30;2.20;;;;;;;-1.37;100.00;102663.00;4433149;32;20065;-75
2022/01/21 05:42:04;;;;;;;2.30;2.20;;;;;;;-0.31;100.00;102854.16;4423224;32;20176;-75
2022/01/21 05:46:59;;;;;;;3.83;2.85;;;;;;;-0.72;100.00;102815.16;4435230;32;20079;-74
2022/01/21 05:49:25;;;;;;;3.42;3.33;;;;;;;-0.54;100.00;102850.91;4427201;32;20106;-76
2022/01/21 05:52:02;;;;;;;2.30;2.20;;;;;;;-0.42;100.00;102877.94;4430900;32;20067;-75
2022/01/21 05:54:27;;;;;;;3.62;3.53;;;;;;;-0.37;100.00;102869.47;4411983;32;20123;-72
2022/01/21 05:56:52;;;;;;;2.22;2.12;;;;;;;-0.80;100.00;102822.69;4415149;32;20344;-74
2022/01/21 05:59:18;;;;;;;5.57;5.35;;;;;;;-0.35;100.00;102871.25;4414821;32;20145;-72
2022/01/21 06:01:43;;;;;;;2.40;2.30;;;;;;;-0.33;100.00;102867.00;4411828;32;20087;-72
2022/01/21 06:04:09;;;;;;;2.30;2.20;;;;;;;-0.37;100.00;102867.75;4429555;32;20053;-74
2022/01/21 06:06:34;;;;;;;2.50;2.40;;;;;;;-0.52;100.00;102831.19;4410349;32;20138;-72
2022/01/21 06:08:59;;;;;;;2.20;2.10;;;;;;;-1.69;100.00;102640.63;4423239;32;20080;-74
2022/01/21 06:11:25;;;;;;;3.85;3.67;;;;;;;-0.30;100.00;102873.94;4420804;32;20692;-74
2022/01/21 06:13:50;;;;;;;2.40;2.30;;;;;;;-0.95;100.00;102774.12;4412087;32;20138;-73
2022/01/21 06:16:17;;;;;;;3.62;3.53;;;;;;;-0.37;100.00;102877.19;4420818;32;20579;-72
2022/01/21 06:18:43;;;;;;;2.20;2.10;;;;;;;-1.18;100.00;102741.66;4400826;32;20130;-72
2022/01/21 06:21:08;;;;;;;2.30;2.20;;;;;;;-0.50;100.00;102845.91;4398531;32;20065;-73
2022/01/21 06:23:34;;;;;;;2.40;2.30;;;;;;;-0.42;100.00;102861.59;4411023;32;20574;-74
2022/01/21 06:25:59;;;;;;;2.50;2.40;;;;;;;-0.75;100.00;102802.19;4410247;32;20084;-72
2022/01/21 06:28:25;;;;;;;4.32;4.12;;;;;;;-0.27;100.00;102887.81;4422214;32;20353;-73
2022/01/21 06:30:50;;;;;;;2.40;2.30;;;;;;;-0.64;100.00;102811.97;4429503;32;20164;-73
2022/01/21 06:33:16;;;;;;;3.58;3.47;;;;;;;-0.22;100.00;102887.91;4435580;32;20251;-73
2022/01/21 06:35:41;;;;;;;2.30;2.20;;;;;;;-0.26;100.00;102876.66;4429551;32;20086;-73
2022/01/21 06:38:06;;;;;;;2.40;2.30;;;;;;;-0.25;100.00;102880.13;4424953;32;20895;-73
2022/01/21 06:40:32;;;;;;;2.40;2.30;;;;;;;-0.26;100.00;102886.09;4417759;32;20086;-72
2022/01/21 06:43:02;;;;;;;2.30;2.20;;;;;;;-0.91;100.00;102785.41;4426077;32;20076;-72
2022/01/21 06:45:27;;;;;;;3.45;3.35;;;;;;;-0.43;100.00;102868.44;4422352;32;20064;-73
2022/01/21 06:47:52;;;;;;;2.30;2.20;;;;;;;-0.35;100.00;102886.72;4427234;32;20554;-73
2022/01/21 06:50:18;;;;;;;3.87;3.72;;;;;;;-0.98;100.00;102786.03;4422655;32;20057;-72
2022/01/21 06:52:43;;;;;;;2.50;2.40;;;;;;;-0.44;100.00;102892.50;4420861;32;20085;-73
2022/01/21 06:55:09;;;;;;;2.30;2.20;;;;;;;-0.41;100.00;102897.72;4414754;32;20155;-73
2022/01/21 06:57:38;;;;;;;2.40;2.30;;;;;;;-0.39;100.00;102895.19;4411736;32;20277;-72
2022/01/21 07:00:10;;;;;;;2.50;2.40;;;;;;;-0.26;100.00;102922.22;4427163;32;20820;-74
2022/01/21 07:02:35;;;;;;;2.27;2.17;;;;;;;-0.48;100.00;102885.50;4412656;32;20149;-72
2022/01/21 07:05:01;;;;;;;2.40;2.30;;;;;;;-0.27;100.00;102925.63;4413493;32;20156;-73
2022/01/21 07:07:26;;;;;;;3.87;3.72;;;;;;;-0.42;100.00;102896.00;4429455;32;20080;-72
2022/01/21 07:09:51;;;;;;;2.30;2.20;;;;;;;-0.50;100.00;102897.47;4424761;32;20064;-75
2022/01/21 07:12:17;;;;;;;4.43;4.22;;;;;;;-0.38;100.00;102930.50;4420480;32;20060;-75
2022/01/21 07:14:42;;;;;;;2.92;2.83;;;;;;;-0.51;100.00;102905.16;4440020;32;20072;-72
2022/01/21 07:17:08;;;;;;;2.65;2.55;;;;;;;-0.57;100.00;102897.25;4423591;32;20083;-76
2022/01/21 07:19:34;;;;;;;2.60;2.50;;;;;;;-0.44;100.00;102918.28;4421785;32;20167;-74
2022/01/21 07:21:59;;;;;;;2.58;2.47;;;;;;;-0.48;100.00;102920.72;4421598;32;20084;-74
2022/01/21 07:24:24;;;;;;;4.65;4.45;;;;;;;-0.53;100.00;102928.31;4419222;32;20067;-73
2022/01/21 07:26:50;;;;;;;2.50;2.40;;;;;;;-0.77;100.00;102874.31;4421590;32;20092;-73
2022/01/21 07:29:15;;;;;;;3.90;3.75;;;;;;;-0.52;100.00;102924.03;4408513;32;20612;-71
2022/01/21 07:31:40;;;;;;;2.58;2.47;;;;;;;-0.79;100.00;102872.53;4411058;32;20462;-73
2022/01/21 07:34:06;;;;;;;2.42;2.33;;;;;;;-0.83;100.00;102872.44;4409537;32;20079;-72
2022/01/21 07:36:34;;;;;;;2.60;2.50;;;;;;;-0.57;100.00;102910.16;4407491;32;20547;-72
2022/01/21 07:39:03;;;;;;;2.45;2.35;;;;;;;-0.69;100.00;102910.66;4423583;32;20439;-72
2022/01/21 07:41:28;;;;;;;3.67;3.58;;;;;;;-0.70;100.00;102908.88;4418914;32;20632;-73
2022/01/21 07:43:54;;;;;;;2.70;2.60;;;;;;;-0.85;100.00;102892.13;4410436;32;20133;-72
2022/01/21 07:46:19;;;;;;;4.05;3.85;;;;;;;-0.61;100.00;102941.00;4420335;32;20153;-72
2022/01/21 07:48:45;;;;;;;2.47;2.37;;;;;;;-0.64;100.00;102945.19;4335851;32;20353;-73
2022/01/21 07:51:10;;;;;;;2.37;2.28;;;;;;;-1.78;100.00;102755.28;4419909;32;20073;-72
2022/01/21 07:53:36;;;;;;;2.35;2.25;;;;;;;-0.65;100.00;102943.44;4419695;32;20077;-73
2022/01/21 07:56:01;;;;;;;2.50;2.40;;;;;;;-1.81;100.00;102759.50;4421968;32;20175;-73
2022/01/21 07:58:27;;;;;;;5.00;4.55;;;;;;;-0.63;100.00;102957.25;4416760;32;20188;-71
2022/01/21 08:00:52;;;;;;;2.40;2.30;;;;;;;-0.63;100.00;102957.25;4409808;32;20087;-72
2022/01/21 08:03:17;;;;;;;3.17;3.08;;;;;;;-0.73;100.00;102934.59;4420608;32;20068;-72
2022/01/21 08:05:44;;;;;;;2.47;2.37;;;;;;;-0.54;100.00;102962.69;4409224;32;20691;-72
2022/01/21 08:08:10;;;;;;;2.60;2.50;;;;;;;-0.46;100.00;102986.13;4405718;32;20460;-73
2022/01/21 08:10:35;;;;;;;2.40;2.30;;;;;;;-0.53;100.00;102932.63;4419498;32;20564;-71
2022/01/21 08:13:00;;;;;;;2.40;2.30;;;;;;;-0.47;100.00;102943.97;4412259;32;20161;-73
2022/01/21 08:15:26;;;;;;;3.90;3.78;;;;;;;-0.28;100.00;102963.47;4420607;32;20103;-73
2022/01/21 08:17:52;;;;;;;2.47;2.37;;;;;;;-0.23;100.00;102971.34;4420168;32;20195;-74
2022/01/21 08:20:17;;;;;;;3.90;3.75;;;;;;;-0.18;100.00;102969.78;4410888;32;20087;-73
2022/01/21 08:22:43;;;;;;;2.50;2.40;;;;;;;-0.13;100.00;102954.44;4416396;32;20144;-73
2022/01/21 08:25:08;;;;;;;2.53;2.42;;;;;;;-1.10;100.00;102791.72;4428604;32;20083;-74
2022/01/21 08:27:34;;;;;;;2.33;2.22;;;;;;;0.05;100.00;102948.91;4417913;32;21151;-73
2022/01/21 08:30:00;;;;;;;2.50;2.40;;;;;;;0.12;100.00;102955.97;4409153;32;20095;-73
2022/01/21 08:32:25;;;;;;;4.03;3.85;;;;;;;0.15;100.00;102954.34;4404203;32;20491;-73
2022/01/21 08:34:50;;;;;;;2.70;2.60;;;;;;;0.17;100.00;102954.41;4417291;32;20735;-73
2022/01/21 08:37:16;;;;;;;4.00;3.80;;;;;;;0.09;100.00;102933.53;4413498;32;20134;-74
2022/01/21 08:39:43;;;;;;;2.50;2.40;;;;;;;0.11;100.00;102949.06;4417415;32;20469;-73
2022/01/21 08:42:08;;;;;;;2.58;2.47;;;;;;;-1.20;100.00;102726.19;4417277;32;20414;-74
2022/01/21 08:44:34;;;;;;;2.65;2.55;;;;;;;0.15;100.00;102951.75;4406916;32;20325;-73
2022/01/21 08:46:59;;;;;;;2.60;2.50;;;;;;;0.14;100.00;102943.97;4413909;32;20484;-74
2022/01/21 08:49:25;;;;;;;4.68;4.47;;;;;;;-0.30;100.00;102874.84;4407530;32;20441;-72
2022/01/21 08:51:53;;;;;;;2.70;2.60;;;;;;;-0.17;100.00;102888.06;4413283;32;20623;-74
2022/01/21 08:54:18;;;;;;;3.85;3.72;;;;;;;0.28;100.00;102953.00;4408549;32;20626;-73
2022/01/21 08:56:44;;;;;;;3.00;2.90;;;;;;;0.26;100.00;102951.19;4415087;32;20254;-72
2022/01/21 08:59:09;;;;;;;2.60;2.50;;;;;;;0.29;100.00;102965.06;4405385;32;20083;-73
2022/01/21 09:01:35;;;;;;;2.80;2.70;;;;;;;0.35;100.00;102951.44;4416271;32;20092;-74
2022/01/21 09:04:00;;;;;;;2.60;2.50;;;;;;;0.35;100.00;102948.84;4407655;32;20087;-73
2022/01/21 09:06:28;;;;;;;4.20;4.00;;;;;;;0.43;100.00;102957.69;4418551;32;20073;-73
2022/01/21 09:08:55;;;;;;;2.58;2.47;;;;;;;0.30;100.00;102943.56;4408319;32;20119;-73
2022/01/21 09:11:20;;;;;;;3.75;3.65;;;;;;;0.34;100.00;102973.81;4415671;32;20211;-74
2022/01/21 09:13:45;;;;;;;2.67;2.58;;;;;;;0.35;100.00;102960.06;4419489;32;20087;-73
2022/01/21 09:16:11;;;;;;;2.78;2.67;;;;;;;0.35;100.00;102964.34;4409399;32;20068;-74
2022/01/21 09:18:48;;;;;;;2.70;2.60;;;;;;;0.33;100.00;102960.84;4405842;32;20072;-72
2022/01/21 09:21:14;;;;;;;3.65;3.50;;;;;;;0.37;100.00;102962.69;4417896;32;20541;-74
2022/01/21 09:23:40;;;;;;;2.83;2.72;;;;;;;0.39;100.00;102959.28;4422860;32;20202;-74
2022/01/21 09:26:05;;;;;;;2.45;2.35;;;;;;;0.49;100.00;102962.13;4422060;32;20107;-72
2022/01/21 09:28:30;;;;;;;3.25;3.15;;;;;;;0.49;100.00;102975.91;4419341;32;20076;-74
2022/01/21 09:30:56;;;;;;;2.45;2.35;;;;;;;0.63;100.00;102959.91;4424750;32;20087;-72
2022/01/21 09:33:21;;;;;;;4.25;4.05;;;;;;;0.71;100.00;102958.37;4418061;32;20076;-73
2022/01/21 09:35:46;;;;;;;2.80;2.70;;;;;;;0.84;100.00;102975.94;4426436;32;20079;-74
2022/01/21 09:38:12;;;;;;;2.85;2.75;;;;;;;0.95;100.00;102961.56;4420560;32;20083;-74
2022/01/21 09:40:43;;;;;;;2.40;2.30;;;;;;;0.23;100.00;102822.87;4427557;32;20499;-75
2022/01/21 09:43:08;;;;;;;2.45;2.35;;;;;;;1.12;100.00;102967.16;4434271;32;20626;-74
2022/01/21 09:45:34;;;;;;;2.45;2.35;;;;;;;0.52;100.00;102853.69;4416734;32;20065;-71
2022/01/21 09:48:04;;;;;;;2.40;2.30;;;;;;;1.01;100.00;102940.16;4426879;32;20083;-73
2022/01/21 09:50:30;;;;;;;2.90;2.80;;;;;;;1.14;100.00;102956.81;4422602;32;20589;-72
2022/01/21 09:52:55;;;;;;;2.60;2.50;;;;;;;1.27;100.00;102952.84;4429473;32;20481;-72
2022/01/21 09:55:22;;;;;;;4.03;3.85;;;;;;;1.37;100.00;102952.19;4423505;32;20071;-72
2022/01/21 09:57:48;;;;;;;2.30;2.20;;;;;;;1.66;100.00;102957.97;4416570;32;20059;-72
2022/01/21 10:00:14;;;;;;;2.60;2.50;;;;;;;1.56;100.00;102966.41;4446164;32;20177;-73
2022/01/21 10:02:40;;;;;;;2.50;2.40;;;;;;;1.13;99.78;102905.97;4426221;32;20088;-71
2022/01/21 10:05:05;;;;;;;2.50;2.40;;;;;;;1.38;99.52;102931.53;4417717;32;20065;-73
2022/01/21 10:07:31;;;;;;;3.12;3.03;;;;;;;1.69;99.77;102972.72;4424464;32;20640;-73
2022/01/21 10:10:00;;;;;;;3.20;3.00;;;;;;;1.71;99.45;102969.31;4428109;32;20404;-73
2022/01/21 10:12:26;;;;;;;4.22;4.03;;;;;;;1.85;98.76;102964.44;4419190;32;20061;-72
2022/01/21 10:14:51;;;;;;;3.00;2.90;;;;;;;1.88;98.35;102967.06;4413766;32;20616;-72
2022/01/21 10:17:16;;;;;;;4.18;3.97;;;;;;;1.56;97.66;102893.94;4409187;32;20080;-72
2022/01/21 10:19:48;;;;;;;2.53;2.42;;;;;;;1.98;97.36;102969.03;4427847;32;20083;-71
2022/01/21 10:22:17;;;;;;;3.67;3.53;;;;;;;2.04;97.27;102982.94;4407606;32;20073;-73
2022/01/21 10:24:57;;;;;;;2.90;2.80;;;;;;;2.04;97.06;102978.63;4410820;32;20417;-72
2022/01/21 10:27:45;;;;;;;4.47;4.28;;;;;;;1.99;97.86;102973.34;4446400;32;20083;-72
2022/01/21 10:30:24;;;;;;;2.92;2.83;;;;;;;2.07;97.35;102973.50;4407862;32;20247;-72
2022/01/21 10:32:49;;;;;;;2.90;2.80;;;;;;;2.29;97.40;102969.63;4427800;32;20662;-71
2022/01/21 10:35:31;;;;;;;3.92;3.78;;;;;;;2.37;96.40;102978.41;4404747;32;20214;-72
2022/01/21 10:37:57;;;;;;;2.80;2.70;;;;;;;2.43;96.13;102980.25;4410548;32;20307;-74
2022/01/21 10:40:22;;;;;;;4.07;3.87;;;;;;;2.51;95.78;102995.94;4408255;32;20206;-72
2022/01/21 10:42:48;;;;;;;3.05;2.95;;;;;;;2.54;95.59;103007.22;4408833;32;20624;-72
2022/01/21 10:45:14;;;;;;;5.78;5.47;;;;;;;2.26;95.25;102916.88;4406377;32;20088;-72
2022/01/21 10:47:41;;;;;;;3.25;3.15;;;;;;;2.65;94.62;102996.19;4426636;32;20674;-72
2022/01/21 10:50:14;;;;;;;2.90;2.80;;;;;;;2.62;95.13;102970.19;4409004;32;20067;-72
2022/01/21 10:52:45;;;;;;;2.83;2.72;;;;;;;2.92;94.53;102975.03;4413361;32;20510;-73
2022/01/21 10:55:28;;;;;;;2.72;2.62;;;;;;;2.81;94.30;102980.03;4424767;32;20276;-72
2022/01/21 10:58:11;;;;;;;3.08;2.97;;;;;;;2.96;94.02;102974.22;4425538;32;20202;-71
2022/01/21 11:00:37;;;;;;;2.92;2.83;;;;;;;3.00;93.41;102965.63;4420165;32;20061;-72
2022/01/21 11:03:11;;;;;;;2.80;2.70;;;;;;;2.73;93.32;102877.94;4412463;32;20099;-72
2022/01/21 11:05:41;;;;;;;2.70;2.60;;;;;;;3.36;92.93;102960.12;4390610;32;20860;-71
2022/01/21 11:08:10;;;;;;;3.00;2.90;;;;;;;3.44;91.37;102964.56;4402790;32;20068;-72
2022/01/21 11:10:49;;;;;;;2.97;2.87;;;;;;;3.24;91.59;102939.19;4395854;32;20073;-72
2022/01/21 11:13:16;;;;;;;3.30;3.20;;;;;;;3.36;91.25;102956.66;4417776;32;20646;-72
2022/01/21 11:15:42;;;;;;;3.10;3.00;;;;;;;3.36;91.46;102951.47;4434749;32;20080;-73
2022/01/21 11:18:09;;;;;;;2.90;2.80;;;;;;;3.19;91.45;102949.53;4439237;32;20068;-72
2022/01/21 11:20:38;;;;;;;2.90;2.80;;;;;;;3.14;91.93;102964.12;4412864;32;20084;-72
2022/01/21 11:23:03;;;;;;;3.00;2.90;;;;;;;3.27;92.67;102954.81;4426619;32;20083;-72
2022/01/21 11:25:50;;;;;;;4.22;4.03;;;;;;;3.30;92.18;102962.63;4418170;32;20600;-73
2022/01/21 11:28:22;;;;;;;4.25;4.05;;;;;;;3.38;92.33;102967.94;4425888;32;20424;-72
2022/01/21 11:30:48;;;;;;;3.10;3.00;;;;;;;3.40;91.43;102967.09;4430233;32;20072;-71
2022/01/21 11:33:14;;;;;;;8.93;4.03;;;;;;;3.40;92.41;102959.31;4409772;32;20254;-71
2022/01/21 11:35:39;;;;;;;3.15;3.05;;;;;;;3.62;91.46;102949.22;4394399;32;20452;-73
2022/01/21 11:38:06;;;;;;;3.10;3.00;;;;;;;3.56;91.41;102931.84;4418564;32;20182;-73
2022/01/21 11:40:32;;;;;;;3.12;3.03;;;;;;;2.87;91.21;102800.34;4416005;32;20218;-72
2022/01/21 11:42:57;;;;;;;3.30;3.20;;;;;;;3.50;90.86;102907.53;4419873;32;20087;-73
2022/01/21 11:50:30;;;;;;;4.22;4.03;;;;;;;3.50;91.91;102933.50;4416519;32;20251;-75
2022/01/21 11:52:56;;;;;;;3.33;3.15;;;;;;;1.91;91.44;102640.91;4406697;32;20567;-72
2022/01/21 11:55:39;;;;;;;4.68;4.47;;;;;;;2.51;91.52;102734.16;4420116;32;20509;-72
2022/01/21 11:58:18;;;;;;;3.45;3.35;;;;;;;3.52;91.28;102895.44;4419715;32;20068;-72
2022/01/21 12:00:44;;;;;;;3.25;3.15;;;;;;;3.85;91.38;102920.97;4419701;32;20072;-74
2022/01/21 12:03:10;;;;;;;3.35;3.25;;;;;;;3.82;90.25;102905.31;4404891;32;20077;-72
2022/01/21 12:05:35;;;;;;;3.10;3.00;;;;;;;3.90;90.61;102913.22;4405264;32;20537;-74
2022/01/21 12:08:05;;;;;;;3.08;2.97;;;;;;;3.57;90.02;102847.06;4404902;32;20171;-72